Time;durP1;ratioP1;P1;durP2;ratioP2;P2;SDS_P1;SDS_P2;PMS_P1;PMS_P2;Temp;Humidity;BMP_temperature;BMP_pressure;BME280_temperature;BME280_humidity;BME280_pressure;Samples;Min_cycle;Max_cycle;Signal;HPM_P1;HPM_P2
2022/10/13 00:02:02;;;;;;;18.70;7.22;;;;;;;;;;5052487;28;20052;-89
2022/10/13 00:04:28;;;;;;;11.55;8.00;;;;;;;;;;5051558;28;20098;-89
2022/10/13 00:06:55;;;;;;;15.05;8.60;;;;;;;;;;5052120;28;20041;-89
2022/10/13 00:09:21;;;;;;;9.45;8.55;;;;;;;;;;5052000;28;20488;-89
2022/10/13 00:11:48;;;;;;;9.50;8.05;;;;;;;;;;5051908;28;20064;-89
2022/10/13 00:14:16;;;;;;;11.38;8.60;;;;;;;;;;5051727;28;20451;-89
2022/10/13 00:16:42;;;;;;;12.10;8.52;;;;;;;;;;5051882;28;20546;-90
2022/10/13 00:19:09;;;;;;;11.45;8.45;;;;;;;;;;5051563;28;20080;-89
2022/10/13 00:21:36;;;;;;;11.80;9.13;;;;;;;;;;5051877;28;20052;-89
2022/10/13 00:24:02;;;;;;;13.05;8.95;;;;;;;;;;5051846;28;20040;-89
2022/10/13 00:26:28;;;;;;;9.93;8.55;;;;;;;;;;5052064;28;20451;-89
2022/10/13 00:28:55;;;;;;;10.60;9.32;;;;;;;;;;5051719;28;20045;-89
2022/10/13 00:31:24;;;;;;;9.05;6.93;;;;;;;;;;5051960;28;20049;-89
2022/10/13 00:33:51;;;;;;;10.68;7.60;;;;;;;;;;5051391;28;20485;-89
2022/10/13 00:36:18;;;;;;;9.80;6.72;;;;;;;;;;5051854;28;20412;-89
2022/10/13 00:38:44;;;;;;;11.40;7.53;;;;;;;;;;5052938;28;20052;-89
2022/10/13 00:41:11;;;;;;;9.15;7.07;;;;;;;;;;5051822;28;20049;-89
2022/10/13 00:43:48;;;;;;;12.20;8.43;;;;;;;;;;5051669;28;20098;-89
2022/10/13 00:46:15;;;;;;;11.70;6.75;;;;;;;;;;5051585;28;20049;-88
2022/10/13 00:48:43;;;;;;;15.30;9.82;;;;;;;;;;5051369;28;20049;-88
2022/10/13 00:51:10;;;;;;;13.52;8.73;;;;;;;;;;5051584;28;20118;-89
2022/10/13 00:53:38;;;;;;;10.27;8.13;;;;;;;;;;5052365;28;20151;-89
2022/10/13 00:56:06;;;;;;;9.95;8.02;;;;;;;;;;5055849;28;20106;-88
2022/10/13 00:58:32;;;;;;;11.55;8.77;;;;;;;;;;5055776;28;20048;-89
2022/10/13 01:00:59;;;;;;;11.45;8.15;;;;;;;;;;5055403;28;20610;-89
2022/10/13 01:03:25;;;;;;;10.23;8.13;;;;;;;;;;5055101;28;20052;-88
2022/10/13 01:05:55;;;;;;;12.30;8.10;;;;;;;;;;5055448;28;20459;-89
2022/10/13 01:08:22;;;;;;;8.13;7.35;;;;;;;;;;5055515;28;20045;-89
2022/10/13 01:10:55;;;;;;;15.63;7.95;;;;;;;;;;5055558;28;20049;-89
2022/10/13 01:13:26;;;;;;;12.10;8.80;;;;;;;;;;5054978;28;20056;-90
2022/10/13 01:15:57;;;;;;;10.15;8.07;;;;;;;;;;5055426;28;20163;-90
2022/10/13 01:18:27;;;;;;;12.10;8.20;;;;;;;;;;5054968;28;20053;-89
2022/10/13 01:21:00;;;;;;;12.45;7.18;;;;;;;;;;5055280;28;20049;-89
2022/10/13 01:23:57;;;;;;;9.27;6.90;;;;;;;;;;5055303;28;20049;-89
2022/10/13 01:26:39;;;;;;;9.52;7.93;;;;;;;;;;5055319;28;20045;-89
2022/10/13 01:29:17;;;;;;;10.93;8.38;;;;;;;;;;5055869;28;20102;-89
2022/10/13 01:31:48;;;;;;;9.98;7.80;;;;;;;;;;5074956;28;20565;-89
2022/10/13 01:34:18;;;;;;;9.55;7.43;;;;;;;;;;5074475;28;20052;-89
2022/10/13 01:36:51;;;;;;;10.30;7.10;;;;;;;;;;5074888;28;20049;-89
2022/10/13 01:39:20;;;;;;;19.80;8.20;;;;;;;;;;5074427;28;20488;-89
2022/10/13 01:41:49;;;;;;;14.98;7.45;;;;;;;;;;5075172;28;20109;-89
2022/10/13 01:44:19;;;;;;;9.00;6.75;;;;;;;;;;5074819;28;20056;-89
2022/10/13 01:46:48;;;;;;;10.88;7.65;;;;;;;;;;5074516;28;20048;-89
2022/10/13 01:49:16;;;;;;;9.68;7.03;;;;;;;;;;5074881;28;20098;-89
2022/10/13 01:51:44;;;;;;;9.60;6.45;;;;;;;;;;5074670;28;20048;-89
2022/10/13 01:54:11;;;;;;;12.98;7.43;;;;;;;;;;5073817;28;20044;-89
2022/10/13 01:56:37;;;;;;;10.98;7.68;;;;;;;;;;5074632;28;20049;-89
2022/10/13 01:59:07;;;;;;;13.05;8.93;;;;;;;;;;5074958;28;20121;-89
2022/10/13 02:01:47;;;;;;;14.98;8.18;;;;;;;;;;5074312;28;20045;-89
2022/10/13 02:04:21;;;;;;;8.52;7.28;;;;;;;;;;5074366;28;20800;-89
2022/10/13 02:06:51;;;;;;;8.07;6.10;;;;;;;;;;5073402;28;20492;-89
2022/10/13 02:09:21;;;;;;;10.25;8.32;;;;;;;;;;5074535;28;20052;-89
2022/10/13 02:11:49;;;;;;;11.63;7.80;;;;;;;;;;5074380;28;20056;-89
2022/10/13 02:14:18;;;;;;;8.63;7.07;;;;;;;;;;5074109;28;20492;-89
2022/10/13 02:16:45;;;;;;;8.93;7.07;;;;;;;;;;5054341;28;20501;-89
2022/10/13 02:19:15;;;;;;;9.38;6.75;;;;;;;;;;5054294;28;20056;-89
2022/10/13 02:21:43;;;;;;;9.63;6.88;;;;;;;;;;5054144;28;20049;-89
2022/10/13 02:24:10;;;;;;;9.10;6.93;;;;;;;;;;5071922;28;20108;-89
2022/10/13 02:26:37;;;;;;;10.32;5.65;;;;;;;;;;5051791;28;20041;-89
2022/10/13 02:29:07;;;;;;;10.80;6.53;;;;;;;;;;5054149;28;20052;-89
2022/10/13 02:31:34;;;;;;;;;;;;;;;;;;5054369;28;20111;-89
2022/10/13 02:34:00;;;;;;;6.65;5.88;;;;;;;;;;5053962;28;19921;-88
2022/10/13 02:36:27;;;;;;;7.50;6.07;;;;;;;;;;5053649;28;20542;-90
2022/10/13 02:38:55;;;;;;;8.80;6.35;;;;;;;;;;5053977;28;20106;-89
2022/10/13 02:41:21;;;;;;;9.27;5.32;;;;;;;;;;5053337;28;20049;-89
2022/10/13 02:43:48;;;;;;;8.38;5.03;;;;;;;;;;5054050;28;20052;-89
2022/10/13 02:46:14;;;;;;;9.13;6.30;;;;;;;;;;5053539;28;20049;-89
2022/10/13 02:48:41;;;;;;;10.35;5.90;;;;;;;;;;5053575;28;20124;-89
2022/10/13 02:51:07;;;;;;;8.75;5.90;;;;;;;;;;5053353;28;20489;-90
2022/10/13 02:53:34;;;;;;;8.10;5.47;;;;;;;;;;5053790;28;20110;-89
2022/10/13 02:56:01;;;;;;;8.45;6.43;;;;;;;;;;5053036;28;20497;-88
2022/10/13 02:58:28;;;;;;;11.63;5.63;;;;;;;;;;5053280;28;20045;-90
2022/10/13 03:00:54;;;;;;;7.18;6.47;;;;;;;;;;5053512;28;20053;-89
2022/10/13 03:03:21;;;;;;;10.73;5.97;;;;;;;;;;5053233;28;20094;-88
2022/10/13 03:05:47;;;;;;;4.47;4.05;;;;;;;;;;5052989;28;20559;-89
2022/10/13 03:08:14;;;;;;;15.25;7.18;;;;;;;;;;5053443;28;20178;-89
2022/10/13 03:10:40;;;;;;;8.30;5.20;;;;;;;;;;5052805;28;20053;-89
2022/10/13 03:13:08;;;;;;;5.65;5.07;;;;;;;;;;5053061;28;20566;-89
2022/10/13 03:15:35;;;;;;;8.18;5.22;;;;;;;;;;5052724;28;20049;-89
2022/10/13 03:18:01;;;;;;;13.77;6.88;;;;;;;;;;5052264;28;20049;-88
2022/10/13 03:20:28;;;;;;;8.60;6.43;;;;;;;;;;5052835;28;20095;-89
2022/10/13 03:22:54;;;;;;;6.35;5.75;;;;;;;;;;5053158;28;20049;-89
2022/10/13 03:25:21;;;;;;;9.63;6.00;;;;;;;;;;5052845;28;20045;-89
2022/10/13 03:27:47;;;;;;;13.38;9.00;;;;;;;;;;5052956;28;20048;-89
2022/10/13 03:30:15;;;;;;;9.52;6.55;;;;;;;;;;5053097;28;20681;-89
2022/10/13 03:32:41;;;;;;;10.73;6.47;;;;;;;;;;5052589;28;20450;-89
2022/10/13 03:35:08;;;;;;;11.32;6.65;;;;;;;;;;5052747;28;20052;-89
2022/10/13 03:37:35;;;;;;;7.90;5.03;;;;;;;;;;5052951;28;20049;-90
2022/10/13 03:40:01;;;;;;;9.32;6.60;;;;;;;;;;5052084;28;20048;-89
2022/10/13 03:42:28;;;;;;;10.82;6.85;;;;;;;;;;5052772;28;20107;-89
2022/10/13 03:44:54;;;;;;;11.30;6.57;;;;;;;;;;5052379;28;20086;-89
2022/10/13 03:47:22;;;;;;;8.90;5.85;;;;;;;;;;5052322;28;20393;-88
2022/10/13 03:49:48;;;;;;;9.45;5.90;;;;;;;;;;5052288;28;20045;-89
2022/10/13 03:52:15;;;;;;;11.40;7.55;;;;;;;;;;5052423;28;20045;-89
2022/10/13 03:54:42;;;;;;;7.45;6.65;;;;;;;;;;5052122;28;20061;-89
2022/10/13 03:57:08;;;;;;;12.40;6.70;;;;;;;;;;5052209;28;20052;-89
2022/10/13 03:59:34;;;;;;;11.65;6.55;;;;;;;;;;5052136;28;20053;-89
2022/10/13 04:02:01;;;;;;;8.45;6.70;;;;;;;;;;5052160;28;20079;-88
2022/10/13 04:04:29;;;;;;;13.40;6.60;;;;;;;;;;5051981;28;20488;-89
2022/10/13 04:06:55;;;;;;;9.68;6.93;;;;;;;;;;5052034;28;20492;-89
2022/10/13 04:09:22;;;;;;;7.30;4.72;;;;;;;;;;5052044;28;20045;-89
2022/10/13 04:11:50;;;;;;;7.60;6.90;;;;;;;;;;5052017;28;20122;-89
2022/10/13 04:14:16;;;;;;;11.57;7.53;;;;;;;;;;5052323;28;20102;-89
2022/10/13 04:16:43;;;;;;;9.85;7.43;;;;;;;;;;5051953;28;20102;-89
2022/10/13 04:19:11;;;;;;;9.38;6.93;;;;;;;;;;5052288;28;20056;-90
2022/10/13 04:21:39;;;;;;;8.85;6.32;;;;;;;;;;5052156;28;20057;-90
2022/10/13 04:24:06;;;;;;;11.25;7.03;;;;;;;;;;5051651;28;20053;-89
2022/10/13 04:26:34;;;;;;;10.45;7.95;;;;;;;;;;5051904;28;20048;-89
2022/10/13 04:29:03;;;;;;;8.90;5.82;;;;;;;;;;5050971;28;20114;-90
2022/10/13 04:31:29;;;;;;;8.25;5.97;;;;;;;;;;5051682;28;20428;-89
2022/10/13 04:33:56;;;;;;;8.80;6.20;;;;;;;;;;5052004;28;20087;-89
2022/10/13 04:36:23;;;;;;;8.75;7.22;;;;;;;;;;5051582;28;20451;-89
2022/10/13 04:38:51;;;;;;;7.28;5.70;;;;;;;;;;5051448;28;20056;-89
2022/10/13 04:41:18;;;;;;;13.57;6.15;;;;;;;;;;5051760;28;20443;-89
2022/10/13 04:43:47;;;;;;;7.63;5.93;;;;;;;;;;5052137;28;20072;-89
2022/10/13 04:46:15;;;;;;;8.82;6.47;;;;;;;;;;5051714;28;20535;-90
2022/10/13 04:48:41;;;;;;;9.38;7.28;;;;;;;;;;5051531;28;20053;-89
2022/10/13 04:51:08;;;;;;;11.18;6.90;;;;;;;;;;5051547;28;20045;-89
2022/10/13 04:53:35;;;;;;;8.85;7.22;;;;;;;;;;5053005;28;20499;-89
2022/10/13 04:56:04;;;;;;;12.13;6.97;;;;;;;;;;5054001;28;20569;-90
2022/10/13 04:58:31;;;;;;;11.80;7.43;;;;;;;;;;5051382;28;20118;-89
2022/10/13 05:00:58;;;;;;;8.95;5.38;;;;;;;;;;5051871;28;20102;-89
2022/10/13 05:03:24;;;;;;;8.68;7.50;;;;;;;;;;5051578;28;20053;-89
2022/10/13 05:05:51;;;;;;;9.63;6.35;;;;;;;;;;5051388;28;20123;-89
2022/10/13 05:08:18;;;;;;;10.75;6.55;;;;;;;;;;5051051;28;20098;-89
2022/10/13 05:10:52;;;;;;;9.57;6.63;;;;;;;;;;5051254;28;20102;-89
2022/10/13 05:13:20;;;;;;;7.28;6.15;;;;;;;;;;5051278;28;20114;-89
2022/10/13 05:15:46;;;;;;;12.85;7.95;;;;;;;;;;5051224;28;20041;-89
2022/10/13 05:18:13;;;;;;;9.32;7.95;;;;;;;;;;5051321;28;20123;-89
2022/10/13 05:20:39;;;;;;;11.43;6.97;;;;;;;;;;5051334;28;20049;-89
2022/10/13 05:23:06;;;;;;;9.93;5.53;;;;;;;;;;5051248;28;20551;-89
2022/10/13 05:25:34;;;;;;;9.73;7.65;;;;;;;;;;5051403;28;20118;-89
2022/10/13 05:28:00;;;;;;;11.40;7.45;;;;;;;;;;5051478;28;20098;-88
2022/10/13 05:30:28;;;;;;;10.27;9.10;;;;;;;;;;5051378;28;20057;-89
2022/10/13 05:32:54;;;;;;;11.35;7.53;;;;;;;;;;5051022;28;20049;-89
2022/10/13 05:35:21;;;;;;;10.32;7.20;;;;;;;;;;5051034;28;20492;-88
2022/10/13 05:37:47;;;;;;;9.65;8.52;;;;;;;;;;5049530;28;20053;-89
2022/10/13 05:40:14;;;;;;;7.72;6.55;;;;;;;;;;5052544;28;20489;-89
2022/10/13 05:42:40;;;;;;;9.02;6.68;;;;;;;;;;5054440;28;20049;-88
2022/10/13 05:45:09;;;;;;;7.03;5.47;;;;;;;;;;5055040;28;20070;-89
2022/10/13 05:47:37;;;;;;;11.38;8.25;;;;;;;;;;5053391;28;20080;-89
2022/10/13 05:50:04;;;;;;;15.35;6.60;;;;;;;;;;5054188;28;20041;-89
2022/10/13 05:52:32;;;;;;;13.38;8.40;;;;;;;;;;5058445;28;20044;-89
2022/10/13 05:55:00;;;;;;;10.70;7.28;;;;;;;;;;5074246;28;20052;-89
2022/10/13 05:57:28;;;;;;;11.23;7.65;;;;;;;;;;5060291;28;20080;-88
2022/10/13 05:59:57;;;;;;;10.35;6.57;;;;;;;;;;5054455;28;20059;-89
2022/10/13 06:02:24;;;;;;;8.23;7.03;;;;;;;;;;5054321;28;20053;-89
2022/10/13 06:04:54;;;;;;;8.63;7.18;;;;;;;;;;5054133;28;20049;-89
2022/10/13 06:07:21;;;;;;;9.90;7.03;;;;;;;;;;5058842;28;20079;-88
2022/10/13 06:09:47;;;;;;;11.75;7.28;;;;;;;;;;5063096;28;20052;-88
2022/10/13 06:12:14;;;;;;;12.30;9.05;;;;;;;;;;5063435;28;20168;-89
2022/10/13 06:14:40;;;;;;;13.13;8.23;;;;;;;;;;5062621;28;20053;-88
2022/10/13 06:17:07;;;;;;;12.57;7.15;;;;;;;;;;5062949;28;20099;-89
2022/10/13 06:19:34;;;;;;;10.43;6.60;;;;;;;;;;5063067;28;20052;-89
2022/10/13 06:22:02;;;;;;;13.52;8.25;;;;;;;;;;5062382;28;20555;-88
2022/10/13 06:24:28;;;;;;;8.50;6.45;;;;;;;;;;5063003;28;20457;-89
2022/10/13 06:26:55;;;;;;;8.45;6.75;;;;;;;;;;5061979;28;20044;-89
2022/10/13 06:29:21;;;;;;;8.90;7.82;;;;;;;;;;5062346;28;20045;-88
2022/10/13 06:31:48;;;;;;;11.85;6.72;;;;;;;;;;5064628;28;20045;-88
2022/10/13 06:34:14;;;;;;;11.07;7.88;;;;;;;;;;5062694;28;20052;-88
2022/10/13 06:36:41;;;;;;;6.18;5.57;;;;;;;;;;5058995;28;20048;-88
2022/10/13 06:39:09;;;;;;;13.95;8.80;;;;;;;;;;5070306;28;20683;-88
2022/10/13 06:41:36;;;;;;;10.88;8.55;;;;;;;;;;5053316;28;20489;-88
2022/10/13 06:44:02;;;;;;;7.75;6.95;;;;;;;;;;5053628;28;20053;-89
2022/10/13 06:46:29;;;;;;;9.40;7.10;;;;;;;;;;5053642;28;20044;-89
2022/10/13 06:48:55;;;;;;;11.30;7.70;;;;;;;;;;5053762;28;20094;-89
2022/10/13 06:51:22;;;;;;;10.70;6.78;;;;;;;;;;5052415;28;20106;-89
2022/10/13 06:53:48;;;;;;;8.23;5.93;;;;;;;;;;5053705;28;20053;-88
2022/10/13 06:56:16;;;;;;;9.73;6.25;;;;;;;;;;5053568;28;20448;-88
2022/10/13 06:58:42;;;;;;;10.63;6.93;;;;;;;;;;5053781;28;20469;-87
2022/10/13 07:01:12;;;;;;;9.90;6.85;;;;;;;;;;5053980;28;20183;-88
2022/10/13 07:03:38;;;;;;;9.88;5.57;;;;;;;;;;5053290;28;20095;-88
2022/10/13 07:06:05;;;;;;;12.65;7.38;;;;;;;;;;5053285;28;20451;-88
2022/10/13 07:08:32;;;;;;;7.93;6.60;;;;;;;;;;5072491;28;20101;-88
2022/10/13 07:10:59;;;;;;;8.60;7.47;;;;;;;;;;5073357;28;20060;-88
2022/10/13 07:13:27;;;;;;;7.40;5.10;;;;;;;;;;5070069;28;20478;-88
2022/10/13 07:15:54;;;;;;;12.65;7.43;;;;;;;;;;5053329;28;20492;-88
2022/10/13 07:18:20;;;;;;;7.65;6.93;;;;;;;;;;5069799;28;20052;-87
2022/10/13 07:20:47;;;;;;;8.60;7.07;;;;;;;;;;5072808;28;20052;-87
2022/10/13 07:23:13;;;;;;;8.00;6.72;;;;;;;;;;5057432;28;20083;-88
2022/10/13 07:25:40;;;;;;;9.60;7.25;;;;;;;;;;5053125;28;20049;-88
2022/10/13 07:28:06;;;;;;;10.30;6.47;;;;;;;;;;5052906;28;20056;-87
2022/10/13 07:30:34;;;;;;;10.77;6.88;;;;;;;;;;5063633;28;20102;-88
2022/10/13 07:33:00;;;;;;;11.23;6.43;;;;;;;;;;5057699;28;20051;-88
2022/10/13 07:35:27;;;;;;;7.85;6.65;;;;;;;;;;5053909;28;20515;-87
2022/10/13 07:37:53;;;;;;;12.35;9.07;;;;;;;;;;5063938;28;20464;-88
2022/10/13 07:40:20;;;;;;;9.13;8.23;;;;;;;;;;5072324;28;20052;-88
2022/10/13 07:42:46;;;;;;;10.88;8.73;;;;;;;;;;5061337;28;20041;-88
2022/10/13 07:45:13;;;;;;;12.70;8.45;;;;;;;;;;5063012;28;20488;-90
2022/10/13 07:47:41;;;;;;;10.73;8.57;;;;;;;;;;5063849;28;20102;-89
2022/10/13 07:50:09;;;;;;;9.07;7.70;;;;;;;;;;5071277;28;20129;-87
2022/10/13 07:52:35;;;;;;;8.27;5.90;;;;;;;;;;5066536;28;20044;-87
2022/10/13 07:55:02;;;;;;;12.38;8.85;;;;;;;;;;5072115;28;20051;-88
2022/10/13 07:57:28;;;;;;;9.32;7.30;;;;;;;;;;5063985;28;20103;-87
2022/10/13 07:59:55;;;;;;;12.10;7.85;;;;;;;;;;5052263;28;20114;-87
2022/10/13 08:02:21;;;;;;;7.70;6.35;;;;;;;;;;5053717;28;20052;-88
2022/10/13 08:04:49;;;;;;;10.10;7.03;;;;;;;;;;5064141;28;20048;-88
2022/10/13 08:07:16;;;;;;;15.65;7.35;;;;;;;;;;5066413;28;20451;-87
2022/10/13 08:09:42;;;;;;;9.65;8.23;;;;;;;;;;5052136;28;20125;-88
2022/10/13 08:12:09;;;;;;;9.10;8.23;;;;;;;;;;5061793;28;20044;-88
2022/10/13 08:14:35;;;;;;;12.15;6.75;;;;;;;;;;5053700;28;20115;-88
2022/10/13 08:17:02;;;;;;;10.23;6.95;;;;;;;;;;5054524;28;20065;-87
2022/10/13 08:19:28;;;;;;;9.30;7.22;;;;;;;;;;5072278;28;20044;-88
2022/10/13 08:21:56;;;;;;;9.15;6.85;;;;;;;;;;5071249;28;20063;-88
2022/10/13 08:24:23;;;;;;;10.48;7.57;;;;;;;;;;5071431;28;20458;-87
2022/10/13 08:26:50;;;;;;;14.52;9.73;;;;;;;;;;5071261;28;20052;-88
2022/10/13 08:29:17;;;;;;;13.68;8.25;;;;;;;;;;5071663;28;20052;-88
2022/10/13 08:31:43;;;;;;;14.60;9.27;;;;;;;;;;5071810;28;20048;-88
2022/10/13 08:34:10;;;;;;;11.65;8.95;;;;;;;;;;5071462;28;20049;-88
2022/10/13 08:36:37;;;;;;;10.85;9.65;;;;;;;;;;5071518;28;20456;-88
2022/10/13 08:39:05;;;;;;;8.60;7.38;;;;;;;;;;5071372;28;20104;-88
2022/10/13 08:41:32;;;;;;;17.55;8.20;;;;;;;;;;5070982;28;20048;-88
2022/10/13 08:44:03;;;;;;;10.48;8.00;;;;;;;;;;5054010;28;20052;-88
2022/10/13 08:46:33;;;;;;;10.13;7.68;;;;;;;;;;5051557;28;20057;-88
2022/10/13 08:49:00;;;;;;;9.82;8.82;;;;;;;;;;5051786;28;20057;-88
2022/10/13 08:51:27;;;;;;;10.02;8.68;;;;;;;;;;5051303;28;20045;-88
2022/10/13 08:53:54;;;;;;;10.05;7.40;;;;;;;;;;5051476;28;20048;-88
2022/10/13 08:56:24;;;;;;;10.30;7.93;;;;;;;;;;5051314;28;20048;-88
2022/10/13 08:58:51;;;;;;;8.18;7.35;;;;;;;;;;5051731;28;20103;-88
2022/10/13 09:01:19;;;;;;;10.75;6.35;;;;;;;;;;5051151;28;20405;-88
2022/10/13 09:03:50;;;;;;;9.90;6.60;;;;;;;;;;5051470;28;20088;-88
2022/10/13 09:06:20;;;;;;;8.45;6.95;;;;;;;;;;5051579;28;20401;-88
2022/10/13 09:08:50;;;;;;;8.48;6.03;;;;;;;;;;5065785;28;20052;-88
2022/10/13 09:11:17;;;;;;;;;;;;;;;;;;5071676;28;20078;-88
2022/10/13 09:13:45;;;;;;;9.32;7.75;;;;;;;;;;5072307;28;19924;-88
2022/10/13 09:16:11;;;;;;;8.93;7.93;;;;;;;;;;5075094;28;20045;-88
2022/10/13 09:18:38;;;;;;;9.23;5.90;;;;;;;;;;5074976;28;20057;-88
2022/10/13 09:21:15;;;;;;;8.63;5.47;;;;;;;;;;5075365;28;20056;-88
2022/10/13 09:23:42;;;;;;;11.35;7.35;;;;;;;;;;5074793;28;20045;-88
2022/10/13 09:26:13;;;;;;;8.10;6.80;;;;;;;;;;5074967;28;20044;-88
2022/10/13 09:28:39;;;;;;;8.70;6.88;;;;;;;;;;5074672;28;20102;-88
2022/10/13 09:31:14;;;;;;;12.63;8.32;;;;;;;;;;5074902;28;20052;-88
2022/10/13 09:33:40;;;;;;;11.60;8.80;;;;;;;;;;5074795;28;20098;-88
2022/10/13 09:36:10;;;;;;;9.95;7.57;;;;;;;;;;5074783;28;20056;-89
2022/10/13 09:38:37;;;;;;;10.07;7.35;;;;;;;;;;5074756;28;20125;-88
2022/10/13 09:41:06;;;;;;;9.95;8.48;;;;;;;;;;5074747;28;20083;-88
2022/10/13 09:43:33;;;;;;;8.55;6.35;;;;;;;;;;5063228;28;20057;-87
2022/10/13 09:46:01;;;;;;;9.93;7.13;;;;;;;;;;5056332;28;20126;-88
2022/10/13 09:48:30;;;;;;;9.15;6.63;;;;;;;;;;5065044;28;20075;-87
2022/10/13 09:50:58;;;;;;;8.32;4.97;;;;;;;;;;5068508;28;20044;-88
2022/10/13 09:53:25;;;;;;;8.93;7.78;;;;;;;;;;5064720;28;20131;-88
2022/10/13 09:56:07;;;;;;;11.23;7.15;;;;;;;;;;5054076;28;20048;-88
2022/10/13 09:58:35;;;;;;;11.48;7.70;;;;;;;;;;5061225;28;20048;-88
2022/10/13 10:01:01;;;;;;;9.63;7.30;;;;;;;;;;5065789;28;20058;-89
2022/10/13 10:03:32;;;;;;;11.32;8.07;;;;;;;;;;5064773;28;20093;-89
2022/10/13 10:05:58;;;;;;;;;;;;;;;;;;5074106;28;20135;-89
2022/10/13 10:08:27;;;;;;;8.98;7.05;;;;;;;;;;5074405;28;19924;-88
2022/10/13 10:10:53;;;;;;;15.65;8.30;;;;;;;;;;5062180;28;20078;-89
2022/10/13 10:13:21;;;;;;;10.27;7.88;;;;;;;;;;5061860;28;20040;-89
2022/10/13 10:15:53;;;;;;;8.70;6.63;;;;;;;;;;5054145;28;20064;-88
2022/10/13 10:18:23;;;;;;;10.48;7.53;;;;;;;;;;5057394;28;20127;-89
2022/10/13 10:20:54;;;;;;;8.68;6.63;;;;;;;;;;5054006;28;20054;-88
2022/10/13 10:23:27;;;;;;;10.50;7.57;;;;;;;;;;5054930;28;20041;-90
2022/10/13 10:25:58;;;;;;;9.68;7.43;;;;;;;;;;5052984;28;20118;-88
2022/10/13 10:28:24;;;;;;;;;;;;;;;;;;5054314;28;20049;-89
2022/10/13 10:30:54;;;;;;;11.90;8.45;;;;;;;;;;5053932;28;19925;-89
2022/10/13 10:33:21;;;;;;;9.73;6.68;;;;;;;;;;5053990;28;20479;-88
2022/10/13 10:35:51;;;;;;;10.57;7.32;;;;;;;;;;5053528;28;20099;-88
2022/10/13 10:38:27;;;;;;;9.43;6.65;;;;;;;;;;5053751;28;20106;-89
2022/10/13 10:40:58;;;;;;;10.80;8.25;;;;;;;;;;5053190;28;20071;-88
2022/10/13 10:43:28;;;;;;;15.90;7.93;;;;;;;;;;5059127;28;20111;-88
2022/10/13 10:45:56;;;;;;;9.85;8.68;;;;;;;;;;5064838;28;20451;-88
2022/10/13 10:48:24;;;;;;;11.27;7.80;;;;;;;;;;5067960;28;20040;-89
2022/10/13 10:50:52;;;;;;;9.65;7.15;;;;;;;;;;5052937;28;20459;-89
2022/10/13 10:53:21;;;;;;;8.13;6.40;;;;;;;;;;5053685;28;20041;-89
2022/10/13 10:55:52;;;;;;;10.23;7.45;;;;;;;;;;5061155;28;20121;-88
2022/10/13 10:58:18;;;;;;;;;;;;;;;;;;5063603;28;20099;-89
2022/10/13 11:00:47;;;;;;;10.15;8.65;;;;;;;;;;5062003;28;19978;-89
2022/10/13 11:03:19;;;;;;;11.57;8.38;;;;;;;;;;5067046;28;20571;-89
2022/10/13 11:05:59;;;;;;;9.65;6.07;;;;;;;;;;5052938;28;20111;-88
2022/10/13 11:08:26;;;;;;;10.30;9.20;;;;;;;;;;5054724;28;20053;-89
2022/10/13 11:11:08;;;;;;;8.07;6.45;;;;;;;;;;5056294;28;20053;-89
2022/10/13 11:13:49;;;;;;;7.65;6.00;;;;;;;;;;5058729;28;20053;-88
2022/10/13 11:16:32;;;;;;;8.55;6.05;;;;;;;;;;5072979;28;20109;-89
2022/10/13 11:19:04;;;;;;;8.73;7.82;;;;;;;;;;5072676;28;20052;-88
2022/10/13 11:21:49;;;;;;;7.97;6.53;;;;;;;;;;5073204;28;20052;-88
2022/10/13 11:24:30;;;;;;;8.63;7.07;;;;;;;;;;5072171;28;20540;-88
2022/10/13 11:27:17;;;;;;;9.05;7.03;;;;;;;;;;5072723;28;20053;-88
2022/10/13 11:29:55;;;;;;;13.05;8.18;;;;;;;;;;5072585;28;20053;-89
2022/10/13 11:32:53;;;;;;;7.30;5.40;;;;;;;;;;5072932;28;20060;-90
2022/10/13 11:35:21;;;;;;;12.15;7.90;;;;;;;;;;5072343;28;20048;-89
2022/10/13 11:37:52;;;;;;;12.55;7.95;;;;;;;;;;5072391;28;20546;-88
2022/10/13 11:40:18;;;;;;;;;;;;;;;;;;5072161;28;20801;-89
2022/10/13 11:43:11;;;;;;;8.60;5.75;;;;;;;;;;5061657;28;19924;-88
2022/10/13 11:45:50;;;;;;;10.32;8.77;;;;;;;;;;5060201;28;20053;-89
2022/10/13 11:48:35;;;;;;;8.65;6.43;;;;;;;;;;5058927;28;20102;-88
2022/10/13 11:51:07;;;;;;;9.07;7.15;;;;;;;;;;5067870;28;20045;-89
2022/10/13 11:53:40;;;;;;;9.98;6.60;;;;;;;;;;5060675;28;20099;-89
2022/10/13 11:56:18;;;;;;;9.00;6.93;;;;;;;;;;5061566;28;20045;-89
2022/10/13 11:58:44;;;;;;;10.80;6.53;;;;;;;;;;5062392;28;20101;-89
2022/10/13 12:01:14;;;;;;;9.73;6.97;;;;;;;;;;5062384;28;20512;-89
2022/10/13 12:03:42;;;;;;;10.82;7.07;;;;;;;;;;5061007;28;20052;-89
2022/10/13 12:06:22;;;;;;;10.88;8.75;;;;;;;;;;5052040;28;20503;-90
2022/10/13 12:08:49;;;;;;;9.93;7.90;;;;;;;;;;5056912;28;20044;-89
2022/10/13 12:11:22;;;;;;;9.80;8.02;;;;;;;;;;5071992;28;20052;-89
2022/10/13 12:13:49;;;;;;;9.52;6.68;;;;;;;;;;5071755;28;20048;-89
2022/10/13 12:16:18;;;;;;;9.43;6.95;;;;;;;;;;5068482;28;20052;-88
2022/10/13 12:18:44;;;;;;;17.08;8.15;;;;;;;;;;5060556;28;20049;-88
2022/10/13 12:21:11;;;;;;;10.10;8.10;;;;;;;;;;5057417;28;20420;-88
2022/10/13 12:23:38;;;;;;;12.65;9.55;;;;;;;;;;5054182;28;20053;-88
2022/10/13 12:26:05;;;;;;;8.05;5.85;;;;;;;;;;5071978;28;20492;-88
2022/10/13 12:28:44;;;;;;;9.73;7.93;;;;;;;;;;5071630;28;20442;-88
2022/10/13 12:31:16;;;;;;;8.23;6.72;;;;;;;;;;5071241;28;20090;-88
2022/10/13 12:33:44;;;;;;;10.68;6.75;;;;;;;;;;5051164;28;20045;-88
2022/10/13 12:36:14;;;;;;;9.38;6.50;;;;;;;;;;5051701;28;20045;-88
2022/10/13 12:38:43;;;;;;;14.13;6.22;;;;;;;;;;5054256;28;20044;-89
2022/10/13 12:41:10;;;;;;;9.00;6.65;;;;;;;;;;5057774;28;20492;-89
2022/10/13 12:43:37;;;;;;;9.25;6.90;;;;;;;;;;5052721;28;20045;-88
2022/10/13 12:46:06;;;;;;;9.93;7.22;;;;;;;;;;5071709;28;20098;-87
2022/10/13 12:48:33;;;;;;;9.30;6.72;;;;;;;;;;5071439;28;20048;-88
2022/10/13 12:51:18;;;;;;;9.27;5.82;;;;;;;;;;5071046;28;20056;-88
2022/10/13 12:53:45;;;;;;;7.82;6.65;;;;;;;;;;5064282;28;20094;-89
2022/10/13 12:56:19;;;;;;;11.00;9.98;;;;;;;;;;5071758;28;20048;-88
2022/10/13 12:58:45;;;;;;;7.10;5.30;;;;;;;;;;5070071;28;20491;-89
2022/10/13 13:01:25;;;;;;;9.05;6.70;;;;;;;;;;5051677;28;20053;-89
2022/10/13 13:03:54;;;;;;;6.30;5.03;;;;;;;;;;5051910;28;20043;-88
2022/10/13 13:06:23;;;;;;;11.40;7.10;;;;;;;;;;5051628;28;20049;-89
2022/10/13 13:09:04;;;;;;;10.48;6.15;;;;;;;;;;5051613;28;20053;-88
2022/10/13 13:11:34;;;;;;;9.50;6.03;;;;;;;;;;5054467;28;20558;-89
2022/10/13 13:14:15;;;;;;;13.18;7.28;;;;;;;;;;5056498;28;20099;-89
2022/10/13 13:16:41;;;;;;;7.57;5.90;;;;;;;;;;5051377;28;20057;-89
2022/10/13 13:19:21;;;;;;;7.78;6.63;;;;;;;;;;5054689;28;20052;-88
2022/10/13 13:21:49;;;;;;;11.38;9.68;;;;;;;;;;5064400;28;20498;-88
2022/10/13 13:24:15;;;;;;;8.32;6.95;;;;;;;;;;5056619;28;20037;-88
2022/10/13 13:26:45;;;;;;;11.40;7.22;;;;;;;;;;5069180;28;20052;-89
2022/10/13 13:29:12;;;;;;;10.35;6.38;;;;;;;;;;5061544;28;20049;-89
2022/10/13 13:31:38;;;;;;;8.55;7.10;;;;;;;;;;5053871;28;20495;-89
2022/10/13 13:34:04;;;;;;;9.27;6.55;;;;;;;;;;5059770;28;20049;-90
2022/10/13 13:36:31;;;;;;;10.93;7.40;;;;;;;;;;5061827;28;20054;-89
2022/10/13 13:38:59;;;;;;;9.50;6.78;;;;;;;;;;5059265;28;20095;-90
2022/10/13 13:41:29;;;;;;;6.50;5.13;;;;;;;;;;5061178;28;20103;-89
2022/10/13 13:43:55;;;;;;;;;;;;;;;;;;5059200;28;20037;-88
2022/10/13 13:46:23;;;;;;;6.35;5.60;;;;;;;;;;5059137;28;20480;-89
2022/10/13 13:48:50;;;;;;;9.05;5.57;;;;;;;;;;5051458;28;20056;-89
2022/10/13 13:51:16;;;;;;;8.73;5.88;;;;;;;;;;5070695;28;20114;-90
2022/10/13 13:53:43;;;;;;;9.15;6.70;;;;;;;;;;5070786;28;20044;-89
2022/10/13 13:56:11;;;;;;;10.18;7.05;;;;;;;;;;5064012;28;20049;-88
2022/10/13 13:58:38;;;;;;;9.85;7.85;;;;;;;;;;5066826;28;20334;-89
2022/10/13 14:01:04;;;;;;;9.45;7.72;;;;;;;;;;5066865;28;20053;-89
2022/10/13 14:03:31;;;;;;;10.90;7.07;;;;;;;;;;5062373;28;20049;-89
2022/10/13 14:05:57;;;;;;;9.77;7.53;;;;;;;;;;5070420;28;20063;-89
2022/10/13 14:08:24;;;;;;;9.80;8.07;;;;;;;;;;5074481;28;20467;-89
2022/10/13 14:10:50;;;;;;;14.65;6.82;;;;;;;;;;5059866;28;20052;-89
2022/10/13 14:13:18;;;;;;;11.20;8.80;;;;;;;;;;5057826;28;20288;-89
2022/10/13 14:15:45;;;;;;;11.77;7.97;;;;;;;;;;5060478;28;20140;-88
2022/10/13 14:18:12;;;;;;;10.07;8.90;;;;;;;;;;5054433;28;20574;-89
2022/10/13 14:20:40;;;;;;;7.82;5.97;;;;;;;;;;5054670;28;20053;-89
2022/10/13 14:23:07;;;;;;;8.98;6.80;;;;;;;;;;5056775;28;20049;-89
2022/10/13 14:25:33;;;;;;;8.98;7.65;;;;;;;;;;5062425;28;20056;-89
2022/10/13 14:28:00;;;;;;;9.15;7.70;;;;;;;;;;5054200;28;20496;-89
2022/10/13 14:30:28;;;;;;;8.77;6.38;;;;;;;;;;5071530;28;20041;-89
2022/10/13 14:32:54;;;;;;;9.57;6.97;;;;;;;;;;5074238;28;20052;-89
2022/10/13 14:35:21;;;;;;;13.70;7.18;;;;;;;;;;5069291;28;20049;-89
2022/10/13 14:37:47;;;;;;;14.75;8.32;;;;;;;;;;5074320;28;20109;-88
2022/10/13 14:40:14;;;;;;;12.35;8.15;;;;;;;;;;5073826;28;20121;-89
2022/10/13 14:42:41;;;;;;;10.20;7.95;;;;;;;;;;5074090;28;20048;-89
2022/10/13 14:45:08;;;;;;;12.30;7.82;;;;;;;;;;5068383;28;20048;-89
2022/10/13 14:47:36;;;;;;;11.02;7.97;;;;;;;;;;5063800;28;20109;-87